sensor_id;sensor_type;location;lat;lon;timestamp;P1;durP1;ratioP1;P2;durP2;ratioP2
45420;SDS011;55462;47.042;8.292;2023-07-13T00:00:22;3.50;;;3.30;;
45420;SDS011;55462;47.042;8.292;2023-07-13T00:02:47;5.97;;;3.22;;
45420;SDS011;55462;47.042;8.292;2023-07-13T00:05:12;4.13;;;3.83;;
45420;SDS011;55462;47.042;8.292;2023-07-13T00:07:38;4.57;;;4.13;;
45420;SDS011;55462;47.042;8.292;2023-07-13T00:10:03;4.53;;;3.75;;
45420;SDS011;55462;47.042;8.292;2023-07-13T00:12:30;4.80;;;3.50;;
45420;SDS011;55462;47.042;8.292;2023-07-13T00:14:58;5.53;;;3.25;;
45420;SDS011;55462;47.042;8.292;2023-07-13T00:17:24;3.30;;;3.05;;
45420;SDS011;55462;47.042;8.292;2023-07-13T00:19:50;3.25;;;2.95;;
45420;SDS011;55462;47.042;8.292;2023-07-13T00:22:16;3.70;;;3.40;;
45420;SDS011;55462;47.042;8.292;2023-07-13T00:24:43;4.25;;;3.03;;
45420;SDS011;55462;47.042;8.292;2023-07-13T00:27:09;3.47;;;3.17;;
45420;SDS011;55462;47.042;8.292;2023-07-13T00:29:34;6.50;;;3.45;;
45420;SDS011;55462;47.042;8.292;2023-07-13T00:32:01;3.60;;;3.15;;
45420;SDS011;55462;47.042;8.292;2023-07-13T00:34:27;3.17;;;2.97;;
45420;SDS011;55462;47.042;8.292;2023-07-13T00:36:52;4.50;;;3.05;;
45420;SDS011;55462;47.042;8.292;2023-07-13T00:39:18;4.57;;;3.35;;
45420;SDS011;55462;47.042;8.292;2023-07-13T00:41:45;6.47;;;3.08;;
45420;SDS011;55462;47.042;8.292;2023-07-13T00:44:13;5.78;;;3.53;;
45420;SDS011;55462;47.042;8.292;2023-07-13T00:46:39;3.42;;;3.10;;
45420;SDS011;55462;47.042;8.292;2023-07-13T00:49:05;4.47;;;3.20;;
45420;SDS011;55462;47.042;8.292;2023-07-13T00:51:43;3.80;;;3.50;;
45420;SDS011;55462;47.042;8.292;2023-07-13T00:54:11;6.10;;;3.67;;
45420;SDS011;55462;47.042;8.292;2023-07-13T00:56:39;3.40;;;3.13;;
45420;SDS011;55462;47.042;8.292;2023-07-13T00:59:06;4.70;;;3.20;;
45420;SDS011;55462;47.042;8.292;2023-07-13T01:01:33;4.22;;;3.22;;
45420;SDS011;55462;47.042;8.292;2023-07-13T01:03:59;3.45;;;3.15;;
45420;SDS011;55462;47.042;8.292;2023-07-13T01:06:24;4.63;;;3.15;;
45420;SDS011;55462;47.042;8.292;2023-07-13T01:08:50;4.20;;;3.47;;
45420;SDS011;55462;47.042;8.292;2023-07-13T01:11:19;3.70;;;3.40;;
45420;SDS011;55462;47.042;8.292;2023-07-13T01:13:46;4.53;;;3.10;;
45420;SDS011;55462;47.042;8.292;2023-07-13T01:16:14;3.10;;;2.90;;
45420;SDS011;55462;47.042;8.292;2023-07-13T01:18:42;3.78;;;3.40;;
45420;SDS011;55462;47.042;8.292;2023-07-13T01:21:07;5.38;;;3.38;;
45420;SDS011;55462;47.042;8.292;2023-07-13T01:23:33;3.47;;;3.17;;
45420;SDS011;55462;47.042;8.292;2023-07-13T01:25:59;3.28;;;3.08;;
45420;SDS011;55462;47.042;8.292;2023-07-13T01:28:25;3.55;;;3.25;;
45420;SDS011;55462;47.042;8.292;2023-07-13T01:30:52;9.88;;;3.80;;
45420;SDS011;55462;47.042;8.292;2023-07-13T01:33:19;3.90;;;3.60;;
45420;SDS011;55462;47.042;8.292;2023-07-13T01:35:45;4.13;;;3.65;;
45420;SDS011;55462;47.042;8.292;2023-07-13T01:38:11;9.80;;;3.83;;
45420;SDS011;55462;47.042;8.292;2023-07-13T01:40:38;4.68;;;3.40;;
45420;SDS011;55462;47.042;8.292;2023-07-13T01:43:04;4.63;;;3.50;;
45420;SDS011;55462;47.042;8.292;2023-07-13T01:45:29;4.20;;;3.40;;
45420;SDS011;55462;47.042;8.292;2023-07-13T01:47:54;3.55;;;3.22;;
45420;SDS011;55462;47.042;8.292;2023-07-13T01:50:20;3.88;;;3.55;;
45420;SDS011;55462;47.042;8.292;2023-07-13T01:52:45;3.67;;;3.38;;
45420;SDS011;55462;47.042;8.292;2023-07-13T01:55:11;4.07;;;3.70;;
45420;SDS011;55462;47.042;8.292;2023-07-13T01:57:36;3.42;;;3.22;;
45420;SDS011;55462;47.042;8.292;2023-07-13T02:00:05;4.18;;;3.45;;
45420;SDS011;55462;47.042;8.292;2023-07-13T02:02:31;5.15;;;4.10;;
45420;SDS011;55462;47.042;8.292;2023-07-13T02:04:56;3.83;;;3.28;;
45420;SDS011;55462;47.042;8.292;2023-07-13T02:07:22;6.47;;;3.58;;
45420;SDS011;55462;47.042;8.292;2023-07-13T02:09:47;3.70;;;3.50;;
45420;SDS011;55462;47.042;8.292;2023-07-13T02:12:12;3.97;;;3.38;;
45420;SDS011;55462;47.042;8.292;2023-07-13T02:14:38;3.60;;;3.33;;
45420;SDS011;55462;47.042;8.292;2023-07-13T02:17:03;3.30;;;3.10;;
45420;SDS011;55462;47.042;8.292;2023-07-13T02:19:29;3.58;;;3.25;;
45420;SDS011;55462;47.042;8.292;2023-07-13T02:21:55;4.00;;;3.22;;
45420;SDS011;55462;47.042;8.292;2023-07-13T02:24:20;3.78;;;3.47;;
45420;SDS011;55462;47.042;8.292;2023-07-13T02:26:46;3.53;;;3.25;;
45420;SDS011;55462;47.042;8.292;2023-07-13T02:29:11;3.25;;;2.95;;
45420;SDS011;55462;47.042;8.292;2023-07-13T02:31:37;3.17;;;2.88;;
45420;SDS011;55462;47.042;8.292;2023-07-13T02:34:02;3.03;;;2.83;;
45420;SDS011;55462;47.042;8.292;2023-07-13T02:36:27;3.10;;;2.78;;
45420;SDS011;55462;47.042;8.292;2023-07-13T02:38:53;3.33;;;3.13;;
45420;SDS011;55462;47.042;8.292;2023-07-13T02:41:18;2.90;;;2.70;;
45420;SDS011;55462;47.042;8.292;2023-07-13T02:43:43;3.38;;;3.00;;
45420;SDS011;55462;47.042;8.292;2023-07-13T02:46:09;2.80;;;2.60;;
45420;SDS011;55462;47.042;8.292;2023-07-13T02:48:35;2.88;;;2.67;;
45420;SDS011;55462;47.042;8.292;2023-07-13T02:51:01;3.55;;;2.78;;
45420;SDS011;55462;47.042;8.292;2023-07-13T02:53:26;3.58;;;3.28;;
45420;SDS011;55462;47.042;8.292;2023-07-13T02:55:51;2.92;;;2.70;;
45420;SDS011;55462;47.042;8.292;2023-07-13T02:58:17;2.72;;;2.53;;
45420;SDS011;55462;47.042;8.292;2023-07-13T03:00:43;2.97;;;2.78;;
45420;SDS011;55462;47.042;8.292;2023-07-13T03:03:08;4.72;;;3.00;;
45420;SDS011;55462;47.042;8.292;2023-07-13T03:05:34;3.03;;;2.83;;
45420;SDS011;55462;47.042;8.292;2023-07-13T03:07:59;3.10;;;2.90;;
45420;SDS011;55462;47.042;8.292;2023-07-13T03:10:25;3.00;;;2.80;;
45420;SDS011;55462;47.042;8.292;2023-07-13T03:12:50;4.72;;;2.85;;
45420;SDS011;55462;47.042;8.292;2023-07-13T03:15:16;3.72;;;2.90;;
45420;SDS011;55462;47.042;8.292;2023-07-13T03:17:41;2.58;;;2.47;;
45420;SDS011;55462;47.042;8.292;2023-07-13T03:20:06;2.75;;;2.55;;
45420;SDS011;55462;47.042;8.292;2023-07-13T03:22:32;2.80;;;2.53;;
45420;SDS011;55462;47.042;8.292;2023-07-13T03:24:57;2.65;;;2.55;;
45420;SDS011;55462;47.042;8.292;2023-07-13T03:27:23;2.95;;;2.75;;
45420;SDS011;55462;47.042;8.292;2023-07-13T03:29:48;2.85;;;2.55;;
45420;SDS011;55462;47.042;8.292;2023-07-13T03:32:13;2.90;;;2.70;;
45420;SDS011;55462;47.042;8.292;2023-07-13T03:34:39;3.22;;;2.40;;
45420;SDS011;55462;47.042;8.292;2023-07-13T03:37:04;2.60;;;2.50;;
45420;SDS011;55462;47.042;8.292;2023-07-13T03:39:30;2.80;;;2.60;;
45420;SDS011;55462;47.042;8.292;2023-07-13T03:41:55;3.45;;;2.50;;
45420;SDS011;55462;47.042;8.292;2023-07-13T03:44:20;2.95;;;2.40;;
45420;SDS011;55462;47.042;8.292;2023-07-13T03:46:46;3.35;;;2.67;;
45420;SDS011;55462;47.042;8.292;2023-07-13T03:49:11;2.95;;;2.75;;
45420;SDS011;55462;47.042;8.292;2023-07-13T03:51:36;3.38;;;2.50;;
45420;SDS011;55462;47.042;8.292;2023-07-13T03:54:02;5.22;;;2.45;;
45420;SDS011;55462;47.042;8.292;2023-07-13T03:56:27;2.72;;;2.50;;
45420;SDS011;55462;47.042;8.292;2023-07-13T03:58:53;3.30;;;3.03;;
45420;SDS011;55462;47.042;8.292;2023-07-13T04:01:19;2.72;;;2.63;;
45420;SDS011;55462;47.042;8.292;2023-07-13T04:03:45;2.72;;;2.53;;
45420;SDS011;55462;47.042;8.292;2023-07-13T04:06:13;2.38;;;2.20;;
45420;SDS011;55462;47.042;8.292;2023-07-13T04:08:46;3.22;;;2.67;;
45420;SDS011;55462;47.042;8.292;2023-07-13T04:11:12;2.42;;;2.22;;
45420;SDS011;55462;47.042;8.292;2023-07-13T04:13:37;2.78;;;2.58;;
45420;SDS011;55462;47.042;8.292;2023-07-13T04:16:03;2.72;;;2.53;;
45420;SDS011;55462;47.042;8.292;2023-07-13T04:18:28;2.78;;;2.58;;
45420;SDS011;55462;47.042;8.292;2023-07-13T04:20:54;2.53;;;2.33;;
45420;SDS011;55462;47.042;8.292;2023-07-13T04:23:19;2.60;;;2.40;;
45420;SDS011;55462;47.042;8.292;2023-07-13T04:25:47;4.15;;;2.53;;
45420;SDS011;55462;47.042;8.292;2023-07-13T04:28:17;2.83;;;2.45;;
45420;SDS011;55462;47.042;8.292;2023-07-13T04:30:43;2.63;;;2.50;;
45420;SDS011;55462;47.042;8.292;2023-07-13T04:33:09;2.58;;;2.38;;
45420;SDS011;55462;47.042;8.292;2023-07-13T04:35:34;3.25;;;2.47;;
45420;SDS011;55462;47.042;8.292;2023-07-13T04:37:59;2.70;;;2.50;;
45420;SDS011;55462;47.042;8.292;2023-07-13T04:40:26;2.67;;;2.47;;
45420;SDS011;55462;47.042;8.292;2023-07-13T04:42:52;2.28;;;2.17;;
45420;SDS011;55462;47.042;8.292;2023-07-13T04:45:17;2.38;;;2.28;;
45420;SDS011;55462;47.042;8.292;2023-07-13T04:47:43;3.55;;;2.60;;
45420;SDS011;55462;47.042;8.292;2023-07-13T04:50:08;3.75;;;2.30;;
45420;SDS011;55462;47.042;8.292;2023-07-13T04:52:35;2.45;;;2.20;;
45420;SDS011;55462;47.042;8.292;2023-07-13T04:55:01;2.67;;;2.30;;
45420;SDS011;55462;47.042;8.292;2023-07-13T04:57:27;2.55;;;2.35;;
45420;SDS011;55462;47.042;8.292;2023-07-13T04:59:52;2.47;;;2.38;;
45420;SDS011;55462;47.042;8.292;2023-07-13T05:02:18;2.47;;;2.38;;
45420;SDS011;55462;47.042;8.292;2023-07-13T05:04:48;2.80;;;2.47;;
45420;SDS011;55462;47.042;8.292;2023-07-13T05:07:14;2.63;;;2.40;;
45420;SDS011;55462;47.042;8.292;2023-07-13T05:09:39;3.08;;;2.88;;
45420;SDS011;55462;47.042;8.292;2023-07-13T05:12:05;2.80;;;2.50;;
45420;SDS011;55462;47.042;8.292;2023-07-13T05:14:31;2.30;;;2.20;;
45420;SDS011;55462;47.042;8.292;2023-07-13T05:16:57;2.40;;;2.25;;
45420;SDS011;55462;47.042;8.292;2023-07-13T05:19:22;4.18;;;2.60;;
45420;SDS011;55462;47.042;8.292;2023-07-13T05:21:48;3.08;;;2.80;;
45420;SDS011;55462;47.042;8.292;2023-07-13T05:24:13;5.82;;;2.80;;
45420;SDS011;55462;47.042;8.292;2023-07-13T05:26:38;3.15;;;2.95;;
45420;SDS011;55462;47.042;8.292;2023-07-13T05:29:03;3.35;;;2.72;;
45420;SDS011;55462;47.042;8.292;2023-07-13T05:31:29;5.05;;;2.85;;
45420;SDS011;55462;47.042;8.292;2023-07-13T05:33:54;4.03;;;3.00;;
45420;SDS011;55462;47.042;8.292;2023-07-13T05:36:19;2.80;;;2.60;;
45420;SDS011;55462;47.042;8.292;2023-07-13T05:38:45;2.88;;;2.67;;
45420;SDS011;55462;47.042;8.292;2023-07-13T05:41:10;3.35;;;3.05;;
45420;SDS011;55462;47.042;8.292;2023-07-13T05:43:35;3.33;;;3.05;;
45420;SDS011;55462;47.042;8.292;2023-07-13T05:46:01;5.82;;;2.80;;
45420;SDS011;55462;47.042;8.292;2023-07-13T05:48:26;6.00;;;3.20;;
45420;SDS011;55462;47.042;8.292;2023-07-13T05:50:52;3.65;;;3.35;;
45420;SDS011;55462;47.042;8.292;2023-07-13T05:53:17;6.10;;;3.60;;
45420;SDS011;55462;47.042;8.292;2023-07-13T05:55:43;3.28;;;3.03;;
45420;SDS011;55462;47.042;8.292;2023-07-13T05:58:09;5.13;;;3.30;;
45420;SDS011;55462;47.042;8.292;2023-07-13T06:00:34;3.20;;;2.90;;
45420;SDS011;55462;47.042;8.292;2023-07-13T06:02:59;3.42;;;3.03;;
45420;SDS011;55462;47.042;8.292;2023-07-13T06:05:25;3.25;;;3.05;;
45420;SDS011;55462;47.042;8.292;2023-07-13T06:07:50;4.88;;;3.28;;
45420;SDS011;55462;47.042;8.292;2023-07-13T06:10:15;4.00;;;3.20;;
45420;SDS011;55462;47.042;8.292;2023-07-13T06:12:41;3.80;;;3.40;;
45420;SDS011;55462;47.042;8.292;2023-07-13T06:15:06;3.63;;;3.42;;
45420;SDS011;55462;47.042;8.292;2023-07-13T06:17:32;4.10;;;3.72;;
45420;SDS011;55462;47.042;8.292;2023-07-13T06:19:57;4.05;;;3.75;;
45420;SDS011;55462;47.042;8.292;2023-07-13T06:22:23;5.25;;;4.32;;
45420;SDS011;55462;47.042;8.292;2023-07-13T06:24:48;4.53;;;4.22;;
45420;SDS011;55462;47.042;8.292;2023-07-13T06:27:13;3.92;;;3.63;;
45420;SDS011;55462;47.042;8.292;2023-07-13T06:29:38;3.85;;;3.58;;
45420;SDS011;55462;47.042;8.292;2023-07-13T06:32:04;3.63;;;3.28;;
45420;SDS011;55462;47.042;8.292;2023-07-13T06:34:30;3.50;;;3.10;;
45420;SDS011;55462;47.042;8.292;2023-07-13T06:36:55;4.32;;;3.28;;
45420;SDS011;55462;47.042;8.292;2023-07-13T06:39:21;4.10;;;3.67;;
45420;SDS011;55462;47.042;8.292;2023-07-13T06:41:46;3.53;;;3.33;;
45420;SDS011;55462;47.042;8.292;2023-07-13T06:44:11;4.50;;;3.22;;
45420;SDS011;55462;47.042;8.292;2023-07-13T06:46:37;3.72;;;3.42;;
45420;SDS011;55462;47.042;8.292;2023-07-13T06:49:02;3.95;;;3.50;;
45420;SDS011;55462;47.042;8.292;2023-07-13T06:51:27;3.83;;;3.50;;
45420;SDS011;55462;47.042;8.292;2023-07-13T06:53:53;3.58;;;3.28;;
45420;SDS011;55462;47.042;8.292;2023-07-13T06:56:19;3.50;;;3.20;;
45420;SDS011;55462;47.042;8.292;2023-07-13T06:58:44;4.22;;;3.10;;
45420;SDS011;55462;47.042;8.292;2023-07-13T07:01:10;3.97;;;3.70;;
45420;SDS011;55462;47.042;8.292;2023-07-13T07:03:35;5.57;;;2.95;;
45420;SDS011;55462;47.042;8.292;2023-07-13T07:06:22;3.55;;;3.30;;
45420;SDS011;55462;47.042;8.292;2023-07-13T07:08:49;3.75;;;3.53;;
45420;SDS011;55462;47.042;8.292;2023-07-13T07:11:20;3.47;;;3.28;;
45420;SDS011;55462;47.042;8.292;2023-07-13T07:13:48;5.30;;;3.65;;
45420;SDS011;55462;47.042;8.292;2023-07-13T07:16:15;4.45;;;4.15;;
45420;SDS011;55462;47.042;8.292;2023-07-13T07:18:40;3.95;;;3.65;;
45420;SDS011;55462;47.042;8.292;2023-07-13T07:21:06;4.20;;;3.58;;
45420;SDS011;55462;47.042;8.292;2023-07-13T07:23:31;4.68;;;3.35;;
45420;SDS011;55462;47.042;8.292;2023-07-13T07:25:56;3.50;;;3.20;;
45420;SDS011;55462;47.042;8.292;2023-07-13T07:28:22;3.53;;;3.25;;
45420;SDS011;55462;47.042;8.292;2023-07-13T07:30:47;3.65;;;3.35;;
45420;SDS011;55462;47.042;8.292;2023-07-13T07:33:13;3.90;;;3.60;;
45420;SDS011;55462;47.042;8.292;2023-07-13T07:35:39;3.88;;;3.45;;
45420;SDS011;55462;47.042;8.292;2023-07-13T07:38:04;3.80;;;3.50;;
45420;SDS011;55462;47.042;8.292;2023-07-13T07:40:30;3.80;;;3.50;;
45420;SDS011;55462;47.042;8.292;2023-07-13T07:42:56;4.22;;;3.83;;
45420;SDS011;55462;47.042;8.292;2023-07-13T07:45:21;4.07;;;3.70;;
45420;SDS011;55462;47.042;8.292;2023-07-13T07:47:47;4.05;;;3.75;;
45420;SDS011;55462;47.042;8.292;2023-07-13T07:50:12;4.05;;;3.65;;
45420;SDS011;55462;47.042;8.292;2023-07-13T07:52:38;3.47;;;3.28;;
45420;SDS011;55462;47.042;8.292;2023-07-13T07:55:04;3.65;;;3.35;;
45420;SDS011;55462;47.042;8.292;2023-07-13T07:57:30;3.60;;;3.40;;
45420;SDS011;55462;47.042;8.292;2023-07-13T07:59:56;3.65;;;3.38;;
45420;SDS011;55462;47.042;8.292;2023-07-13T08:02:21;3.42;;;3.22;;
45420;SDS011;55462;47.042;8.292;2023-07-13T08:04:46;3.10;;;2.90;;
45420;SDS011;55462;47.042;8.292;2023-07-13T08:07:11;2.70;;;2.60;;
45420;SDS011;55462;47.042;8.292;2023-07-13T08:09:37;3.05;;;2.83;;
45420;SDS011;55462;47.042;8.292;2023-07-13T08:12:02;2.80;;;2.60;;
45420;SDS011;55462;47.042;8.292;2023-07-13T08:14:28;3.40;;;3.15;;
45420;SDS011;55462;47.042;8.292;2023-07-13T08:16:53;2.92;;;2.72;;
45420;SDS011;55462;47.042;8.292;2023-07-13T08:19:18;3.25;;;3.05;;
45420;SDS011;55462;47.042;8.292;2023-07-13T08:21:44;2.90;;;2.70;;
45420;SDS011;55462;47.042;8.292;2023-07-13T08:24:09;3.05;;;2.85;;
45420;SDS011;55462;47.042;8.292;2023-07-13T08:26:34;3.70;;;2.90;;
45420;SDS011;55462;47.042;8.292;2023-07-13T08:29:00;3.00;;;2.80;;
45420;SDS011;55462;47.042;8.292;2023-07-13T08:31:25;3.22;;;2.92;;
45420;SDS011;55462;47.042;8.292;2023-07-13T08:33:50;3.03;;;2.83;;
45420;SDS011;55462;47.042;8.292;2023-07-13T08:36:16;2.90;;;2.70;;
45420;SDS011;55462;47.042;8.292;2023-07-13T08:38:41;2.60;;;2.40;;
45420;SDS011;55462;47.042;8.292;2023-07-13T08:41:14;2.60;;;2.40;;
45420;SDS011;55462;47.042;8.292;2023-07-13T08:43:40;2.70;;;2.50;;
45420;SDS011;55462;47.042;8.292;2023-07-13T08:46:08;2.63;;;2.53;;
45420;SDS011;55462;47.042;8.292;2023-07-13T08:48:42;2.55;;;2.35;;
45420;SDS011;55462;47.042;8.292;2023-07-13T08:51:23;2.45;;;2.30;;
45420;SDS011;55462;47.042;8.292;2023-07-13T08:54:16;2.33;;;2.22;;
45420;SDS011;55462;47.042;8.292;2023-07-13T08:56:45;3.30;;;2.30;;
45420;SDS011;55462;47.042;8.292;2023-07-13T08:59:13;2.60;;;2.10;;
45420;SDS011;55462;47.042;8.292;2023-07-13T09:02:00;4.13;;;2.55;;
45420;SDS011;55462;47.042;8.292;2023-07-13T09:07:26;2.40;;;2.30;;
45420;SDS011;55462;47.042;8.292;2023-07-13T09:10:20;2.35;;;2.15;;
45420;SDS011;55462;47.042;8.292;2023-07-13T09:15:30;2.60;;;2.40;;
45420;SDS011;55462;47.042;8.292;2023-07-13T09:17:59;2.42;;;2.33;;
45420;SDS011;55462;47.042;8.292;2023-07-13T09:22:57;2.50;;;2.30;;
45420;SDS011;55462;47.042;8.292;2023-07-13T09:25:34;2.30;;;2.15;;
45420;SDS011;55462;47.042;8.292;2023-07-13T09:33:19;3.42;;;2.83;;
45420;SDS011;55462;47.042;8.292;2023-07-13T09:35:45;5.88;;;3.03;;
45420;SDS011;55462;47.042;8.292;2023-07-13T09:38:12;2.70;;;2.50;;
45420;SDS011;55462;47.042;8.292;2023-07-13T09:43:17;2.45;;;2.30;;
45420;SDS011;55462;47.042;8.292;2023-07-13T09:45:45;4.93;;;2.88;;
45420;SDS011;55462;47.042;8.292;2023-07-13T09:48:11;3.35;;;3.05;;
45420;SDS011;55462;47.042;8.292;2023-07-13T09:50:38;4.72;;;3.42;;
45420;SDS011;55462;47.042;8.292;2023-07-13T09:53:04;7.30;;;3.97;;
45420;SDS011;55462;47.042;8.292;2023-07-13T09:55:37;5.88;;;3.50;;
45420;SDS011;55462;47.042;8.292;2023-07-13T09:58:04;3.47;;;3.10;;
45420;SDS011;55462;47.042;8.292;2023-07-13T10:00:32;4.68;;;3.22;;
45420;SDS011;55462;47.042;8.292;2023-07-13T10:03:01;3.22;;;2.90;;
45420;SDS011;55462;47.042;8.292;2023-07-13T10:05:41;4.70;;;3.50;;
45420;SDS011;55462;47.042;8.292;2023-07-13T10:08:16;5.43;;;3.20;;
45420;SDS011;55462;47.042;8.292;2023-07-13T10:10:59;4.55;;;3.28;;
45420;SDS011;55462;47.042;8.292;2023-07-13T10:13:30;4.43;;;3.17;;
45420;SDS011;55462;47.042;8.292;2023-07-13T10:16:04;3.35;;;3.15;;
45420;SDS011;55462;47.042;8.292;2023-07-13T10:18:31;3.30;;;2.97;;
45420;SDS011;55462;47.042;8.292;2023-07-13T10:21:15;3.42;;;3.13;;
45420;SDS011;55462;47.042;8.292;2023-07-13T10:23:43;2.58;;;2.47;;
45420;SDS011;55462;47.042;8.292;2023-07-13T10:26:13;3.10;;;2.97;;
45420;SDS011;55462;47.042;8.292;2023-07-13T10:28:42;2.90;;;2.70;;
45420;SDS011;55462;47.042;8.292;2023-07-13T10:31:10;2.70;;;2.50;;
45420;SDS011;55462;47.042;8.292;2023-07-13T10:33:37;2.25;;;2.15;;
45420;SDS011;55462;47.042;8.292;2023-07-13T10:36:08;2.53;;;2.30;;
45420;SDS011;55462;47.042;8.292;2023-07-13T10:38:38;2.40;;;2.30;;
45420;SDS011;55462;47.042;8.292;2023-07-13T10:41:10;2.70;;;2.50;;
45420;SDS011;55462;47.042;8.292;2023-07-13T10:43:38;2.70;;;2.60;;
45420;SDS011;55462;47.042;8.292;2023-07-13T10:46:07;3.10;;;2.45;;
45420;SDS011;55462;47.042;8.292;2023-07-13T10:48:34;2.65;;;2.45;;
45420;SDS011;55462;47.042;8.292;2023-07-13T10:51:01;2.20;;;2.10;;
45420;SDS011;55462;47.042;8.292;2023-07-13T10:53:38;2.00;;;1.90;;
45420;SDS011;55462;47.042;8.292;2023-07-13T10:58:41;2.30;;;2.08;;
45420;SDS011;55462;47.042;8.292;2023-07-13T11:03:38;1.80;;;1.75;;
45420;SDS011;55462;47.042;8.292;2023-07-13T11:08:55;1.45;;;1.45;;
45420;SDS011;55462;47.042;8.292;2023-07-13T11:18:40;2.10;;;1.90;;
45420;SDS011;55462;47.042;8.292;2023-07-13T11:21:23;4.93;;;2.83;;
45420;SDS011;55462;47.042;8.292;2023-07-13T11:23:53;2.95;;;2.50;;
45420;SDS011;55462;47.042;8.292;2023-07-13T11:26:39;4.30;;;2.83;;
45420;SDS011;55462;47.042;8.292;2023-07-13T11:29:08;3.05;;;2.63;;
45420;SDS011;55462;47.042;8.292;2023-07-13T11:31:37;3.20;;;2.40;;
45420;SDS011;55462;47.042;8.292;2023-07-13T11:34:06;2.65;;;2.45;;
45420;SDS011;55462;47.042;8.292;2023-07-13T11:36:38;3.08;;;2.50;;
45420;SDS011;55462;47.042;8.292;2023-07-13T11:41:43;2.95;;;2.40;;
45420;SDS011;55462;47.042;8.292;2023-07-13T11:44:16;2.38;;;2.15;;
45420;SDS011;55462;47.042;8.292;2023-07-13T11:46:47;6.40;;;2.90;;
45420;SDS011;55462;47.042;8.292;2023-07-13T11:49:16;2.53;;;2.35;;
45420;SDS011;55462;47.042;8.292;2023-07-13T11:51:42;3.97;;;2.90;;
45420;SDS011;55462;47.042;8.292;2023-07-13T11:56:57;4.93;;;2.67;;
45420;SDS011;55462;47.042;8.292;2023-07-13T11:59:26;5.40;;;2.60;;
45420;SDS011;55462;47.042;8.292;2023-07-13T12:01:52;4.22;;;2.65;;
45420;SDS011;55462;47.042;8.292;2023-07-13T12:04:26;6.80;;;3.38;;
45420;SDS011;55462;47.042;8.292;2023-07-13T12:06:57;3.17;;;2.72;;
45420;SDS011;55462;47.042;8.292;2023-07-13T12:09:28;3.47;;;2.42;;
45420;SDS011;55462;47.042;8.292;2023-07-13T12:11:54;4.68;;;2.90;;
45420;SDS011;55462;47.042;8.292;2023-07-13T12:14:21;2.45;;;2.25;;
45420;SDS011;55462;47.042;8.292;2023-07-13T12:16:49;2.42;;;2.22;;
45420;SDS011;55462;47.042;8.292;2023-07-13T12:19:27;3.60;;;2.35;;
45420;SDS011;55462;47.042;8.292;2023-07-13T12:21:54;2.90;;;2.15;;
45420;SDS011;55462;47.042;8.292;2023-07-13T12:24:21;2.58;;;2.00;;
45420;SDS011;55462;47.042;8.292;2023-07-13T12:26:58;2.60;;;2.00;;
45420;SDS011;55462;47.042;8.292;2023-07-13T12:29:26;2.13;;;2.03;;
45420;SDS011;55462;47.042;8.292;2023-07-13T12:31:51;2.50;;;2.30;;
45420;SDS011;55462;47.042;8.292;2023-07-13T12:34:20;2.65;;;2.00;;
45420;SDS011;55462;47.042;8.292;2023-07-13T12:39:18;2.65;;;1.80;;
45420;SDS011;55462;47.042;8.292;2023-07-13T12:41:45;2.58;;;2.05;;
45420;SDS011;55462;47.042;8.292;2023-07-13T12:44:11;1.77;;;1.67;;
45420;SDS011;55462;47.042;8.292;2023-07-13T12:46:38;2.15;;;1.60;;
45420;SDS011;55462;47.042;8.292;2023-07-13T12:49:04;1.88;;;1.77;;
45420;SDS011;55462;47.042;8.292;2023-07-13T12:51:32;1.73;;;1.63;;
45420;SDS011;55462;47.042;8.292;2023-07-13T12:53:59;1.60;;;1.50;;
45420;SDS011;55462;47.042;8.292;2023-07-13T12:56:32;2.00;;;1.63;;
45420;SDS011;55462;47.042;8.292;2023-07-13T12:58:58;1.75;;;1.65;;
45420;SDS011;55462;47.042;8.292;2023-07-13T13:01:27;1.77;;;1.60;;
45420;SDS011;55462;47.042;8.292;2023-07-13T13:03:53;2.08;;;1.95;;
45420;SDS011;55462;47.042;8.292;2023-07-13T13:06:27;3.35;;;1.65;;
45420;SDS011;55462;47.042;8.292;2023-07-13T13:08:55;1.58;;;1.48;;
45420;SDS011;55462;47.042;8.292;2023-07-13T13:11:23;2.05;;;1.50;;
45420;SDS011;55462;47.042;8.292;2023-07-13T13:13:49;2.45;;;1.85;;
45420;SDS011;55462;47.042;8.292;2023-07-13T13:18:49;1.40;;;1.40;;
45420;SDS011;55462;47.042;8.292;2023-07-13T13:21:16;4.68;;;1.48;;
45420;SDS011;55462;47.042;8.292;2023-07-13T13:23:42;1.55;;;1.55;;
45420;SDS011;55462;47.042;8.292;2023-07-13T13:26:13;2.05;;;1.50;;
45420;SDS011;55462;47.042;8.292;2023-07-13T13:28:40;1.30;;;1.30;;
45420;SDS011;55462;47.042;8.292;2023-07-13T13:31:07;1.63;;;1.60;;
45420;SDS011;55462;47.042;8.292;2023-07-13T13:33:34;1.60;;;1.50;;
45420;SDS011;55462;47.042;8.292;2023-07-13T13:35:59;1.77;;;1.67;;
45420;SDS011;55462;47.042;8.292;2023-07-13T13:38:26;4.60;;;1.40;;
45420;SDS011;55462;47.042;8.292;2023-07-13T13:40:52;1.40;;;1.40;;
45420;SDS011;55462;47.042;8.292;2023-07-13T13:43:18;1.58;;;1.48;;
45420;SDS011;55462;47.042;8.292;2023-07-13T13:45:50;2.90;;;1.77;;
45420;SDS011;55462;47.042;8.292;2023-07-13T13:48:29;1.50;;;1.45;;
45420;SDS011;55462;47.042;8.292;2023-07-13T13:50:57;1.80;;;1.70;;
45420;SDS011;55462;47.042;8.292;2023-07-13T13:53:23;2.08;;;1.50;;
45420;SDS011;55462;47.042;8.292;2023-07-13T13:55:49;1.75;;;1.65;;
45420;SDS011;55462;47.042;8.292;2023-07-13T13:58:15;1.60;;;1.50;;
45420;SDS011;55462;47.042;8.292;2023-07-13T14:00:40;1.33;;;1.33;;
45420;SDS011;55462;47.042;8.292;2023-07-13T14:03:08;1.63;;;1.52;;
45420;SDS011;55462;47.042;8.292;2023-07-13T14:05:45;1.40;;;1.30;;
45420;SDS011;55462;47.042;8.292;2023-07-13T14:08:19;1.40;;;1.30;;
45420;SDS011;55462;47.042;8.292;2023-07-13T14:10:47;1.30;;;1.20;;
45420;SDS011;55462;47.042;8.292;2023-07-13T14:13:17;1.55;;;1.45;;
45420;SDS011;55462;47.042;8.292;2023-07-13T14:15:44;1.90;;;1.30;;
45420;SDS011;55462;47.042;8.292;2023-07-13T14:18:10;1.67;;;1.58;;
45420;SDS011;55462;47.042;8.292;2023-07-13T14:20:35;1.38;;;1.38;;
45420;SDS011;55462;47.042;8.292;2023-07-13T14:23:00;1.20;;;1.20;;
45420;SDS011;55462;47.042;8.292;2023-07-13T14:25:26;1.38;;;1.27;;
45420;SDS011;55462;47.042;8.292;2023-07-13T14:27:56;1.60;;;1.50;;
45420;SDS011;55462;47.042;8.292;2023-07-13T14:30:24;2.63;;;1.23;;
45420;SDS011;55462;47.042;8.292;2023-07-13T14:32:49;1.30;;;1.30;;
45420;SDS011;55462;47.042;8.292;2023-07-13T14:35:16;1.27;;;1.27;;
45420;SDS011;55462;47.042;8.292;2023-07-13T14:37:43;1.70;;;1.60;;
45420;SDS011;55462;47.042;8.292;2023-07-13T14:42:40;2.33;;;1.38;;
45420;SDS011;55462;47.042;8.292;2023-07-13T14:45:11;1.48;;;1.42;;
45420;SDS011;55462;47.042;8.292;2023-07-13T14:47:37;1.80;;;1.48;;
45420;SDS011;55462;47.042;8.292;2023-07-13T14:50:03;2.78;;;1.60;;
45420;SDS011;55462;47.042;8.292;2023-07-13T14:52:30;1.27;;;1.27;;
45420;SDS011;55462;47.042;8.292;2023-07-13T14:54:55;1.65;;;1.60;;
45420;SDS011;55462;47.042;8.292;2023-07-13T14:57:20;2.53;;;1.63;;
45420;SDS011;55462;47.042;8.292;2023-07-13T14:59:46;2.08;;;1.38;;
45420;SDS011;55462;47.042;8.292;2023-07-13T15:04:54;1.45;;;1.45;;
45420;SDS011;55462;47.042;8.292;2023-07-13T15:07:19;1.35;;;1.27;;
45420;SDS011;55462;47.042;8.292;2023-07-13T15:09:45;1.75;;;1.65;;
45420;SDS011;55462;47.042;8.292;2023-07-13T15:12:12;1.60;;;1.50;;
45420;SDS011;55462;47.042;8.292;2023-07-13T15:14:37;1.30;;;1.30;;
45420;SDS011;55462;47.042;8.292;2023-07-13T15:17:03;1.58;;;1.45;;
45420;SDS011;55462;47.042;8.292;2023-07-13T15:19:28;1.70;;;1.60;;
45420;SDS011;55462;47.042;8.292;2023-07-13T15:21:54;1.48;;;1.48;;
45420;SDS011;55462;47.042;8.292;2023-07-13T15:24:22;2.25;;;1.33;;
45420;SDS011;55462;47.042;8.292;2023-07-13T15:26:47;1.48;;;1.40;;
45420;SDS011;55462;47.042;8.292;2023-07-13T15:29:14;1.23;;;1.23;;
45420;SDS011;55462;47.042;8.292;2023-07-13T15:31:40;1.20;;;1.10;;
45420;SDS011;55462;47.042;8.292;2023-07-13T15:34:09;1.48;;;1.42;;